Time;durP1;ratioP1;P1;durP2;ratioP2;P2;SDS_P1;SDS_P2;PMS_P1;PMS_P2;Temp;Humidity;BMP_temperature;BMP_pressure;BME280_temperature;BME280_humidity;BME280_pressure;Samples;Min_cycle;Max_cycle;Signal;HPM_P1;HPM_P2
2023/10/05 05:46:27;;;;;;;1.63;1.50;;;;;;;;;;4995202;23;20082;-73
2023/10/05 05:48:52;;;;;;;1.10;1.00;;;;;;;;;;4955643;29;20512;-71
2023/10/05 05:51:22;;;;;;;2.03;1.27;;;;;;;;;;4955604;29;20027;-71
2023/10/05 05:53:48;;;;;;;2.70;1.35;;;;;;;;;;4955482;28;20082;-70
2023/10/05 05:56:18;;;;;;;2.78;1.30;;;;;;;;;;4955565;29;20027;-66
2023/10/05 05:58:50;;;;;;;1.60;1.20;;;;;;;;;;4955636;29;20065;-72
2023/10/05 06:01:16;;;;;;;1.25;1.10;;;;;;;;;;4955755;29;20034;-73
2023/10/05 06:03:48;;;;;;;1.83;1.15;;;;;;;;;;4955560;29;20046;-72
2023/10/05 06:06:16;;;;;;;1.83;1.38;;;;;;;;;;4955254;29;20078;-72
2023/10/05 06:08:42;;;;;;;1.30;1.20;;;;;;;;;;4955223;29;20030;-66
2023/10/05 06:11:08;;;;;;;1.38;1.23;;;;;;;;;;4955271;29;20023;-67
2023/10/05 06:13:37;;;;;;;1.63;1.20;;;;;;;;;;4955179;29;20034;-73
2023/10/05 06:16:09;;;;;;;1.30;1.15;;;;;;;;;;4937963;29;20035;-73
2023/10/05 06:18:35;;;;;;;1.60;1.20;;;;;;;;;;4954919;29;20030;-69
2023/10/05 06:21:01;;;;;;;1.13;0.95;;;;;;;;;;4954599;28;20023;-74
2023/10/05 06:23:26;;;;;;;1.10;1.00;;;;;;;;;;4954891;29;20098;-73
2023/10/05 06:25:53;;;;;;;2.10;1.17;;;;;;;;;;4955164;29;20062;-70
2023/10/05 06:28:19;;;;;;;1.45;1.20;;;;;;;;;;4954876;28;20027;-72
2023/10/05 06:30:44;;;;;;;1.75;1.30;;;;;;;;;;4955063;28;20102;-67
2023/10/05 06:33:10;;;;;;;1.42;1.20;;;;;;;;;;4937724;29;20483;-71
2023/10/05 06:35:36;;;;;;;1.65;1.33;;;;;;;;;;4956766;28;20058;-72
2023/10/05 06:38:03;;;;;;;1.77;1.35;;;;;;;;;;4966218;28;20030;-70
2023/10/05 06:40:29;;;;;;;1.90;1.30;;;;;;;;;;4961592;28;20023;-74
2023/10/05 06:42:57;;;;;;;2.28;1.20;;;;;;;;;;4953045;28;20094;-74
2023/10/05 06:45:23;;;;;;;2.85;1.20;;;;;;;;;;4950032;28;20570;-74
2023/10/05 06:47:50;;;;;;;1.20;1.10;;;;;;;;;;4953327;28;20035;-75
2023/10/05 06:50:17;;;;;;;3.88;1.30;;;;;;;;;;4952650;28;20031;-75
2023/10/05 06:52:44;;;;;;;1.55;1.27;;;;;;;;;;4949711;28;20050;-76
2023/10/05 06:55:12;;;;;;;1.58;1.30;;;;;;;;;;4955574;28;20511;-71
2023/10/05 06:57:38;;;;;;;2.10;1.10;;;;;;;;;;4946999;28;20063;-69
2023/10/05 07:00:11;;;;;;;2.00;1.38;;;;;;;;;;4958725;28;20038;-78
2023/10/05 07:02:39;;;;;;;1.88;1.08;;;;;;;;;;4975510;28;20038;-76
2023/10/05 07:05:08;;;;;;;2.00;1.38;;;;;;;;;;4975118;28;20050;-72
2023/10/05 07:07:36;;;;;;;1.25;1.10;;;;;;;;;;4967696;28;20046;-78
2023/10/05 07:10:03;;;;;;;2.47;1.50;;;;;;;;;;4952139;29;20031;-71
2023/10/05 07:12:31;;;;;;;1.20;1.10;;;;;;;;;;4952354;29;20038;-71
2023/10/05 07:14:57;;;;;;;1.92;1.30;;;;;;;;;;4952235;29;20035;-72
2023/10/05 07:17:25;;;;;;;1.50;1.30;;;;;;;;;;4952652;29;20019;-76
2023/10/05 07:19:51;;;;;;;1.77;1.33;;;;;;;;;;4951753;28;20034;-76
2023/10/05 07:22:17;;;;;;;1.33;1.00;;;;;;;;;;4952700;29;20027;-78
2023/10/05 07:24:43;;;;;;;1.50;1.30;;;;;;;;;;4950919;29;20024;-76
2023/10/05 07:27:08;;;;;;;2.45;1.50;;;;;;;;;;4959673;29;20112;-77
2023/10/05 07:29:34;;;;;;;2.20;1.45;;;;;;;;;;4950914;29;20050;-76
2023/10/05 07:32:01;;;;;;;1.35;1.25;;;;;;;;;;4973900;28;20035;-74
2023/10/05 07:34:27;;;;;;;2.10;1.08;;;;;;;;;;4964671;28;20035;-79
2023/10/05 07:36:54;;;;;;;9.80;1.45;;;;;;;;;;4979354;28;20038;-79
2023/10/05 07:39:23;;;;;;;2.75;1.50;;;;;;;;;;4977291;28;20099;-80
2023/10/05 07:41:51;;;;;;;2.30;1.60;;;;;;;;;;4969403;28;20061;-77
2023/10/05 07:44:17;;;;;;;1.33;1.15;;;;;;;;;;4966986;28;20471;-77
2023/10/05 07:46:43;;;;;;;2.15;1.30;;;;;;;;;;4960086;28;20037;-75
2023/10/05 07:49:09;;;;;;;2.85;1.48;;;;;;;;;;4977449;28;20027;-76
2023/10/05 07:51:36;;;;;;;2.45;1.70;;;;;;;;;;4972958;28;20081;-69
2023/10/05 07:54:02;;;;;;;3.30;1.65;;;;;;;;;;4964114;28;20034;-74
2023/10/05 07:56:28;;;;;;;3.03;1.55;;;;;;;;;;4957317;28;20036;-74
2023/10/05 07:58:54;;;;;;;2.83;1.58;;;;;;;;;;4958968;29;20021;-68
2023/10/05 08:01:21;;;;;;;2.42;1.85;;;;;;;;;;4961882;28;20032;-76
2023/10/05 08:03:46;;;;;;;3.25;1.50;;;;;;;;;;4964867;28;20392;-70
2023/10/05 08:06:15;;;;;;;2.58;1.40;;;;;;;;;;4964560;28;20037;-68
2023/10/05 08:08:44;;;;;;;3.00;1.73;;;;;;;;;;4960723;28;20031;-77
2023/10/05 08:11:15;;;;;;;3.75;1.50;;;;;;;;;;4975129;28;20028;-76
2023/10/05 08:13:42;;;;;;;3.50;1.58;;;;;;;;;;4960472;28;20039;-76
2023/10/05 08:16:09;;;;;;;2.67;1.50;;;;;;;;;;4957147;28;20038;-74
2023/10/05 08:18:36;;;;;;;5.10;1.25;;;;;;;;;;4961435;28;20357;-70
2023/10/05 08:21:02;;;;;;;5.22;4.22;;;;;;;;;;4976489;28;20027;-70
2023/10/05 08:23:28;;;;;;;5.45;3.58;;;;;;;;;;4976503;28;20518;-70
2023/10/05 08:25:57;;;;;;;6.15;2.78;;;;;;;;;;4976750;28;20097;-70
2023/10/05 08:28:24;;;;;;;4.77;2.10;;;;;;;;;;4976802;28;20447;-70
2023/10/05 08:31:05;;;;;;;7.25;2.40;;;;;;;;;;4973672;28;20042;-70
2023/10/05 08:33:34;;;;;;;3.20;2.25;;;;;;;;;;4971600;28;20383;-69
2023/10/05 08:36:06;;;;;;;11.43;2.20;;;;;;;;;;4976262;28;20476;-68
2023/10/05 08:38:35;;;;;;;10.52;2.47;;;;;;;;;;4976292;28;20320;-70
2023/10/05 08:41:07;;;;;;;7.50;2.00;;;;;;;;;;4975701;28;20022;-68
2023/10/05 08:43:40;;;;;;;3.00;2.00;;;;;;;;;;4961136;28;20043;-71
2023/10/05 08:46:12;;;;;;;5.63;2.22;;;;;;;;;;4957882;28;20050;-68
2023/10/05 08:48:38;;;;;;;4.03;1.80;;;;;;;;;;4956450;28;20038;-69
2023/10/05 08:51:10;;;;;;;3.30;1.90;;;;;;;;;;4961124;28;20034;-70
2023/10/05 08:53:44;;;;;;;2.95;1.88;;;;;;;;;;4965339;28;20057;-70
2023/10/05 08:56:15;;;;;;;5.05;1.92;;;;;;;;;;4958972;28;20039;-69
2023/10/05 08:58:48;;;;;;;5.13;2.28;;;;;;;;;;4955953;29;20027;-69
2023/10/05 09:01:24;;;;;;;6.47;2.03;;;;;;;;;;4955722;29;20028;-71
2023/10/05 09:03:54;;;;;;;3.95;2.10;;;;;;;;;;4955425;29;20031;-70
2023/10/05 09:06:26;;;;;;;;;;;;;;;;;;4955948;29;20051;-69
2023/10/05 09:08:54;;;;;;;4.07;2.00;;;;;;;;;;4955308;29;20371;-69
2023/10/05 09:11:31;;;;;;;4.70;1.90;;;;;;;;;;4955186;28;20347;-69
2023/10/05 09:17:09;;;;;;;2.80;1.80;;;;;;;;;;4913348;29;20448;-69
2023/10/05 09:19:35;;;;;;;4.65;2.03;;;;;;;;;;4956331;29;20031;-69
2023/10/05 09:24:26;;;;;;;7.15;2.00;;;;;;;;;;4956257;28;20023;-70
2023/10/05 09:26:57;;;;;;;2.33;1.92;;;;;;;;;;4956183;29;20027;-70
2023/10/05 09:29:30;;;;;;;2.72;1.80;;;;;;;;;;4956033;29;20053;-70
2023/10/05 09:31:58;;;;;;;3.05;2.10;;;;;;;;;;4956103;29;20019;-70
2023/10/05 09:34:49;;;;;;;4.85;2.22;;;;;;;;;;4955992;29;20079;-70
2023/10/05 09:37:16;;;;;;;4.25;2.00;;;;;;;;;;4955901;29;20085;-69
2023/10/05 09:39:49;;;;;;;3.28;2.05;;;;;;;;;;4955207;28;20023;-68
2023/10/05 09:42:26;;;;;;;3.60;2.03;;;;;;;;;;4955405;29;20575;-70
2023/10/05 09:45:01;;;;;;;3.35;1.98;;;;;;;;;;4955326;29;20138;-71
2023/10/05 09:47:32;;;;;;;3.03;1.90;;;;;;;;;;4956128;28;20439;-71
2023/10/05 09:50:09;;;;;;;4.07;2.00;;;;;;;;;;4955761;29;20039;-70
2023/10/05 09:52:36;;;;;;;2.35;1.85;;;;;;;;;;4955801;29;20031;-70
2023/10/05 09:55:06;;;;;;;4.85;2.30;;;;;;;;;;4955376;28;20039;-73
2023/10/05 09:57:46;;;;;;;2.90;1.90;;;;;;;;;;4955385;29;20432;-71
2023/10/05 10:00:47;;;;;;;2.83;1.90;;;;;;;;;;4955376;29;20042;-70
2023/10/05 10:03:17;;;;;;;2.03;1.80;;;;;;;;;;4962609;28;20035;-73
2023/10/05 10:06:09;;;;;;;;;;;;;;;;;;4963876;28;20530;-71
2023/10/05 10:08:51;;;;;;;3.22;1.98;;;;;;;;;;4960297;28;20344;-70
2023/10/05 10:11:18;;;;;;;3.85;2.13;;;;;;;;;;4966263;28;20502;-68
2023/10/05 10:14:13;;;;;;;4.15;2.10;;;;;;;;;;4971448;28;20113;-70
2023/10/05 10:16:43;;;;;;;2.50;1.92;;;;;;;;;;4963263;28;20029;-71
2023/10/05 10:19:20;;;;;;;4.10;2.28;;;;;;;;;;4954838;28;20027;-71
2023/10/05 10:21:49;;;;;;;4.95;2.30;;;;;;;;;;4955010;29;20039;-70
2023/10/05 10:24:18;;;;;;;3.00;1.88;;;;;;;;;;4955023;29;20031;-73
2023/10/05 10:26:45;;;;;;;2.50;1.90;;;;;;;;;;4957510;28;20027;-73
2023/10/05 10:29:11;;;;;;;3.33;2.03;;;;;;;;;;4970962;28;20034;-70
2023/10/05 10:31:47;;;;;;;3.33;2.00;;;;;;;;;;4968413;28;20384;-70
2023/10/05 10:34:41;;;;;;;3.40;2.17;;;;;;;;;;4974230;28;20118;-68
2023/10/05 10:37:09;;;;;;;3.65;2.00;;;;;;;;;;4947688;28;20043;-72
2023/10/05 10:39:37;;;;;;;3.50;1.90;;;;;;;;;;4960432;28;20069;-72
2023/10/05 10:42:04;;;;;;;5.20;2.00;;;;;;;;;;4967639;28;20113;-70
2023/10/05 10:44:57;;;;;;;3.78;2.33;;;;;;;;;;4956651;28;20373;-68
2023/10/05 10:47:24;;;;;;;2.17;1.77;;;;;;;;;;4954805;29;20077;-65
2023/10/05 10:50:14;;;;;;;6.85;2.17;;;;;;;;;;4963886;28;20027;-67
2023/10/05 10:52:40;;;;;;;4.53;2.38;;;;;;;;;;4967599;28;20142;-67
2023/10/05 10:55:14;;;;;;;4.80;1.95;;;;;;;;;;4961290;28;20571;-67
2023/10/05 10:57:57;;;;;;;4.72;1.90;;;;;;;;;;4963840;28;20431;-66
2023/10/05 11:03:11;;;;;;;3.88;1.85;;;;;;;;;;4963510;28;20213;-68
2023/10/05 11:05:40;;;;;;;4.15;2.00;;;;;;;;;;4945722;28;20443;-66
2023/10/05 11:08:13;;;;;;;9.10;2.30;;;;;;;;;;4970408;28;20506;-66
2023/10/05 11:10:42;;;;;;;5.03;1.92;;;;;;;;;;4967355;28;20414;-67
2023/10/05 11:13:15;;;;;;;1.80;1.70;;;;;;;;;;4962659;28;20035;-66
2023/10/05 11:15:59;;;;;;;3.60;1.83;;;;;;;;;;4970152;28;20146;-68
2023/10/05 11:18:37;;;;;;;3.53;1.90;;;;;;;;;;4973615;28;20026;-67
2023/10/05 11:21:17;;;;;;;3.65;1.90;;;;;;;;;;4973675;28;20467;-67
2023/10/05 11:23:55;;;;;;;;;;;;;;;;;;4970810;28;20050;-68
2023/10/05 11:27:05;;;;;;;9.57;2.30;;;;;;;;;;4962526;28;19914;-70
2023/10/05 11:29:15;;;;;;;;;;;;;;;;;;4957797;28;20110;-71
2023/10/05 11:31:41;;;;;;;6.43;2.10;;;;;;;;;;4967354;28;19918;-69
2023/10/05 11:34:13;;;;;;;5.85;2.15;;;;;;;;;;4973514;28;20023;-69
2023/10/05 11:36:40;;;;;;;6.68;2.03;;;;;;;;;;4973425;28;20502;-68
2023/10/05 11:39:49;;;;;;;5.35;2.05;;;;;;;;;;4963947;28;20059;-71
2023/10/05 11:41:56;;;;;;;7.85;1.95;;;;;;;;;;4942745;29;20043;-72
2023/10/05 11:44:27;;;;;;;6.72;2.08;;;;;;;;;;4950627;28;20028;-68
2023/10/05 11:46:59;;;;;;;7.60;2.10;;;;;;;;;;4942778;29;20028;-71
2023/10/05 11:49:31;;;;;;;3.13;1.70;;;;;;;;;;4944397;29;20023;-72
2023/10/05 11:51:57;;;;;;;3.60;2.00;;;;;;;;;;4950231;29;20032;-68
2023/10/05 11:54:24;;;;;;;11.07;2.22;;;;;;;;;;4951317;29;20495;-72
2023/10/05 11:56:50;;;;;;;5.38;2.17;;;;;;;;;;4950029;28;20392;-72
2023/10/05 11:59:36;;;;;;;5.40;2.15;;;;;;;;;;4935393;28;20110;-69
2023/10/05 12:02:08;;;;;;;6.05;2.13;;;;;;;;;;4937837;28;20023;-69
2023/10/05 12:04:39;;;;;;;3.90;1.88;;;;;;;;;;4963487;28;20018;-70
2023/10/05 12:07:05;;;;;;;5.43;2.10;;;;;;;;;;4959702;28;20488;-70
2023/10/05 12:09:32;;;;;;;7.45;1.80;;;;;;;;;;4952868;29;20023;-69
2023/10/05 12:11:59;;;;;;;3.95;1.95;;;;;;;;;;4953477;29;20042;-75
2023/10/05 12:14:25;;;;;;;11.60;2.63;;;;;;;;;;4951843;29;20054;-68
2023/10/05 12:16:57;;;;;;;5.20;2.13;;;;;;;;;;4951457;29;20028;-69
2023/10/05 12:19:29;;;;;;;6.20;2.20;;;;;;;;;;4952783;28;20035;-69
2023/10/05 12:21:59;;;;;;;3.85;1.83;;;;;;;;;;4937760;29;20023;-70
2023/10/05 12:24:26;;;;;;;5.63;2.42;;;;;;;;;;4955048;29;20034;-70
2023/10/05 12:26:52;;;;;;;8.52;2.20;;;;;;;;;;4955251;29;20031;-67
2023/10/05 12:29:17;;;;;;;12.85;2.25;;;;;;;;;;4955289;29;20377;-69
2023/10/05 12:31:44;;;;;;;5.15;2.10;;;;;;;;;;4956952;28;20721;-68
2023/10/05 12:34:17;;;;;;;3.22;2.10;;;;;;;;;;4954637;29;20122;-69
2023/10/05 12:36:51;;;;;;;6.80;2.10;;;;;;;;;;4954698;29;20035;-68
2023/10/05 12:39:20;;;;;;;5.47;1.90;;;;;;;;;;4958785;28;20353;-68
2023/10/05 12:41:47;;;;;;;6.18;1.90;;;;;;;;;;4973867;28;20391;-68
2023/10/05 12:44:14;;;;;;;7.30;2.22;;;;;;;;;;4973901;28;20039;-67
2023/10/05 12:46:43;;;;;;;5.68;2.33;;;;;;;;;;4973645;28;20026;-67
2023/10/05 12:49:11;;;;;;;6.32;1.88;;;;;;;;;;4973762;28;20026;-72
2023/10/05 12:51:39;;;;;;;6.15;1.98;;;;;;;;;;4973775;28;20054;-68
2023/10/05 12:54:28;;;;;;;4.85;2.15;;;;;;;;;;4973572;28;20027;-70
2023/10/05 12:56:54;;;;;;;11.80;2.20;;;;;;;;;;4974379;28;20033;-71
2023/10/05 12:59:20;;;;;;;7.75;2.10;;;;;;;;;;4973726;28;20598;-71
2023/10/05 13:01:46;;;;;;;8.38;2.50;;;;;;;;;;4973841;28;20039;-72
2023/10/05 13:04:13;;;;;;;5.78;2.45;;;;;;;;;;4973195;28;20034;-71
2023/10/05 13:06:40;;;;;;;5.15;2.30;;;;;;;;;;4949665;29;20039;-67
2023/10/05 13:09:13;;;;;;;4.57;2.25;;;;;;;;;;4953969;29;20416;-70
2023/10/05 13:11:45;;;;;;;5.53;2.03;;;;;;;;;;4953990;29;20117;-70
2023/10/05 13:14:19;;;;;;;4.18;2.03;;;;;;;;;;4953912;29;20032;-67
2023/10/05 13:16:48;;;;;;;4.57;1.88;;;;;;;;;;4954108;29;20031;-69
2023/10/05 13:19:14;;;;;;;16.63;2.55;;;;;;;;;;4953705;29;20070;-68
2023/10/05 13:21:45;;;;;;;4.22;2.03;;;;;;;;;;4953835;28;20027;-72
2023/10/05 13:24:15;;;;;;;6.75;2.17;;;;;;;;;;4953837;29;20038;-68
2023/10/05 13:26:46;;;;;;;9.02;2.20;;;;;;;;;;4953888;29;20054;-69
2023/10/05 13:29:12;;;;;;;7.47;2.38;;;;;;;;;;4953900;28;20031;-69
2023/10/05 13:31:39;;;;;;;7.25;2.25;;;;;;;;;;4952786;28;20031;-70
2023/10/05 13:34:09;;;;;;;6.22;1.83;;;;;;;;;;4953647;28;20027;-72
2023/10/05 13:36:36;;;;;;;5.53;2.10;;;;;;;;;;4953571;29;20027;-71
2023/10/05 13:39:09;;;;;;;9.68;2.15;;;;;;;;;;4953818;29;20078;-70
2023/10/05 13:41:38;;;;;;;21.05;3.05;;;;;;;;;;4953508;29;20041;-70
2023/10/05 13:44:04;;;;;;;10.18;2.05;;;;;;;;;;4953627;29;20043;-70
2023/10/05 13:46:35;;;;;;;12.07;3.17;;;;;;;;;;4953153;28;20519;-71
2023/10/05 13:49:02;;;;;;;14.75;3.08;;;;;;;;;;4953245;29;20042;-70
2023/10/05 13:51:33;;;;;;;18.38;2.60;;;;;;;;;;4953262;29;20023;-70
2023/10/05 13:53:59;;;;;;;4.10;2.03;;;;;;;;;;4953086;29;20038;-70
2023/10/05 13:56:28;;;;;;;15.13;2.38;;;;;;;;;;4953236;28;20030;-70
2023/10/05 13:59:01;;;;;;;5.85;2.13;;;;;;;;;;4963262;28;20122;-70
2023/10/05 14:01:38;;;;;;;11.13;2.20;;;;;;;;;;4973106;28;20039;-70
2023/10/05 14:04:12;;;;;;;6.63;2.05;;;;;;;;;;4973242;28;20054;-71
2023/10/05 14:06:43;;;;;;;8.52;2.50;;;;;;;;;;4973113;28;20046;-71
2023/10/05 14:09:12;;;;;;;10.10;2.20;;;;;;;;;;4973134;28;20022;-69
2023/10/05 14:11:40;;;;;;;6.70;1.90;;;;;;;;;;4973052;28;20035;-70
2023/10/05 14:14:09;;;;;;;11.00;2.63;;;;;;;;;;4972961;28;20042;-70
2023/10/05 14:16:50;;;;;;;11.63;2.50;;;;;;;;;;4973034;28;20387;-72
2023/10/05 14:19:19;;;;;;;7.13;1.92;;;;;;;;;;4973181;28;20034;-69
2023/10/05 14:21:46;;;;;;;9.75;2.13;;;;;;;;;;4972810;28;20031;-69
2023/10/05 14:24:13;;;;;;;6.82;2.30;;;;;;;;;;4972797;28;20039;-69
2023/10/05 14:26:44;;;;;;;16.95;2.78;;;;;;;;;;4972839;28;20923;-70
2023/10/05 14:29:12;;;;;;;8.15;2.40;;;;;;;;;;4953513;28;20082;-69
2023/10/05 14:31:38;;;;;;;7.30;2.28;;;;;;;;;;4961984;28;20040;-69
2023/10/05 14:34:06;;;;;;;8.75;2.03;;;;;;;;;;4953358;29;20055;-71
2023/10/05 14:36:31;;;;;;;8.02;2.63;;;;;;;;;;4953188;29;20546;-70
2023/10/05 14:39:05;;;;;;;12.80;2.28;;;;;;;;;;4953563;29;20031;-69
2023/10/05 14:41:34;;;;;;;4.70;1.92;;;;;;;;;;4935782;28;20555;-71
2023/10/05 14:44:04;;;;;;;8.32;2.42;;;;;;;;;;4953229;28;20030;-70
2023/10/05 14:46:30;;;;;;;7.88;2.08;;;;;;;;;;4953100;29;20039;-69
2023/10/05 14:48:57;;;;;;;10.88;2.15;;;;;;;;;;4953347;29;20488;-69
2023/10/05 14:51:23;;;;;;;7.43;2.25;;;;;;;;;;4953160;29;20503;-69
2023/10/05 14:53:49;;;;;;;7.65;2.13;;;;;;;;;;4953010;28;20032;-71
2023/10/05 14:56:16;;;;;;;8.02;2.45;;;;;;;;;;4953045;29;20038;-70
2023/10/05 14:58:45;;;;;;;10.80;2.33;;;;;;;;;;4966835;28;20034;-69
2023/10/05 15:01:13;;;;;;;5.43;2.05;;;;;;;;;;4971542;28;20030;-69
2023/10/05 15:03:39;;;;;;;10.30;2.75;;;;;;;;;;4971299;28;20477;-70
2023/10/05 15:06:04;;;;;;;7.43;2.20;;;;;;;;;;4971243;28;20034;-69
2023/10/05 15:08:31;;;;;;;10.38;2.50;;;;;;;;;;4971313;28;20034;-70
2023/10/05 15:10:57;;;;;;;6.68;2.20;;;;;;;;;;4971216;28;20479;-70
2023/10/05 15:13:24;;;;;;;8.63;2.58;;;;;;;;;;4968096;28;20500;-70
2023/10/05 15:15:52;;;;;;;9.18;2.15;;;;;;;;;;4971124;28;20050;-71
2023/10/05 15:18:21;;;;;;;10.50;2.45;;;;;;;;;;4971234;28;20121;-69
2023/10/05 15:20:47;;;;;;;11.82;2.83;;;;;;;;;;4971090;28;20031;-69
2023/10/05 15:23:13;;;;;;;6.70;2.25;;;;;;;;;;4969998;28;20027;-69
2023/10/05 15:25:40;;;;;;;7.53;2.30;;;;;;;;;;4944377;28;20038;-70
2023/10/05 15:28:11;;;;;;;4.72;2.20;;;;;;;;;;4940598;29;20040;-69
2023/10/05 15:30:38;;;;;;;17.25;2.75;;;;;;;;;;4941375;29;20491;-70
2023/10/05 15:33:04;;;;;;;7.45;3.22;;;;;;;;;;4933351;29;20511;-70
2023/10/05 15:35:30;;;;;;;13.18;2.55;;;;;;;;;;4916302;29;20042;-69
2023/10/05 15:37:56;;;;;;;11.68;3.05;;;;;;;;;;4933492;29;20031;-70
2023/10/05 15:40:21;;;;;;;7.50;2.25;;;;;;;;;;4933456;29;20374;-70
2023/10/05 15:42:53;;;;;;;7.35;2.78;;;;;;;;;;4933333;29;20123;-70
2023/10/05 15:45:21;;;;;;;10.82;2.63;;;;;;;;;;4933460;29;20416;-70
2023/10/05 15:47:48;;;;;;;9.73;2.55;;;;;;;;;;4933364;29;20027;-69
2023/10/05 15:50:18;;;;;;;8.27;2.90;;;;;;;;;;4933421;29;20527;-71
2023/10/05 15:52:50;;;;;;;6.63;2.42;;;;;;;;;;4933297;29;20485;-70
2023/10/05 15:55:18;;;;;;;9.40;2.65;;;;;;;;;;4944067;29;20039;-70
2023/10/05 15:57:47;;;;;;;7.70;2.40;;;;;;;;;;4946771;28;20118;-70
2023/10/05 16:00:18;;;;;;;9.18;2.35;;;;;;;;;;4939362;29;20031;-71
2023/10/05 16:02:46;;;;;;;7.28;2.38;;;;;;;;;;4936830;29;20035;-71
2023/10/05 16:05:12;;;;;;;7.20;1.98;;;;;;;;;;4919706;29;20388;-71
2023/10/05 16:07:39;;;;;;;7.63;2.40;;;;;;;;;;4936878;29;20023;-72
2023/10/05 16:10:07;;;;;;;8.85;2.35;;;;;;;;;;4936678;29;20059;-71
2023/10/05 16:12:33;;;;;;;10.48;2.08;;;;;;;;;;4936892;29;20030;-71
2023/10/05 16:14:59;;;;;;;11.18;2.90;;;;;;;;;;4936614;29;20035;-71
2023/10/05 16:17:24;;;;;;;5.35;1.98;;;;;;;;;;4919645;29;20108;-70
2023/10/05 16:19:50;;;;;;;6.00;2.35;;;;;;;;;;4941359;28;20063;-72
2023/10/05 16:22:15;;;;;;;7.07;2.30;;;;;;;;;;4938899;29;20568;-71
2023/10/05 16:24:44;;;;;;;5.10;2.03;;;;;;;;;;4949042;28;20053;-72
2023/10/05 16:27:10;;;;;;;8.50;2.03;;;;;;;;;;4975224;28;20093;-72
2023/10/05 16:29:36;;;;;;;5.13;2.10;;;;;;;;;;4975139;28;20073;-73
2023/10/05 16:32:03;;;;;;;9.98;2.30;;;;;;;;;;4975078;28;20479;-72
2023/10/05 16:34:33;;;;;;;8.35;2.00;;;;;;;;;;4974786;28;20047;-72
2023/10/05 16:36:58;;;;;;;4.03;2.08;;;;;;;;;;4952410;28;20085;-73
2023/10/05 16:39:24;;;;;;;5.15;2.40;;;;;;;;;;4946618;28;20516;-73
2023/10/05 16:41:49;;;;;;;4.50;2.05;;;;;;;;;;4945162;28;20039;-72
2023/10/05 16:44:16;;;;;;;3.40;1.98;;;;;;;;;;4944817;28;20034;-73
2023/10/05 16:46:42;;;;;;;5.25;1.95;;;;;;;;;;4944443;29;20051;-72
2023/10/05 16:49:07;;;;;;;5.30;1.95;;;;;;;;;;4962311;28;20090;-72
2023/10/05 16:51:33;;;;;;;7.22;1.90;;;;;;;;;;4964232;28;20082;-72
2023/10/05 16:53:58;;;;;;;6.43;2.15;;;;;;;;;;4964263;28;20027;-71
2023/10/05 16:56:25;;;;;;;3.97;2.05;;;;;;;;;;4964741;28;20054;-71
2023/10/05 16:58:51;;;;;;;4.22;1.85;;;;;;;;;;4959800;28;20027;-72
2023/10/05 17:01:17;;;;;;;4.47;2.00;;;;;;;;;;4949343;28;20038;-72
2023/10/05 17:03:42;;;;;;;5.25;2.08;;;;;;;;;;4942646;29;20028;-72
2023/10/05 17:06:08;;;;;;;5.65;2.28;;;;;;;;;;4954922;28;20039;-72
2023/10/05 17:08:33;;;;;;;6.82;2.22;;;;;;;;;;4955131;29;20102;-71
2023/10/05 17:10:59;;;;;;;14.02;2.50;;;;;;;;;;4961355;28;20033;-71
2023/10/05 17:13:24;;;;;;;6.47;2.50;;;;;;;;;;4963411;28;20031;-71
2023/10/05 17:15:50;;;;;;;14.35;2.40;;;;;;;;;;4962470;28;20514;-72
2023/10/05 17:18:17;;;;;;;21.58;3.92;;;;;;;;;;4960719;28;20084;-72
2023/10/05 17:20:43;;;;;;;29.33;3.47;;;;;;;;;;4964428;28;20027;-72
2023/10/05 17:23:08;;;;;;;30.42;4.13;;;;;;;;;;4961655;28;20038;-72
2023/10/05 17:25:39;;;;;;;22.63;3.50;;;;;;;;;;4956826;28;20055;-72
2023/10/05 17:28:05;;;;;;;12.15;3.28;;;;;;;;;;4957354;28;20122;-72
2023/10/05 17:30:31;;;;;;;28.50;3.30;;;;;;;;;;4935668;29;20131;-72
2023/10/05 17:32:56;;;;;;;23.42;4.25;;;;;;;;;;4942842;29;20483;-72
2023/10/05 17:35:22;;;;;;;29.30;3.53;;;;;;;;;;4944350;29;20476;-72
2023/10/05 17:37:48;;;;;;;18.98;3.03;;;;;;;;;;4943616;29;20307;-72
2023/10/05 17:40:14;;;;;;;15.27;3.15;;;;;;;;;;4954401;29;20047;-71
2023/10/05 17:42:40;;;;;;;17.58;3.17;;;;;;;;;;4954395;29;20396;-71
2023/10/05 17:45:06;;;;;;;14.65;2.60;;;;;;;;;;4954026;28;20058;-71
2023/10/05 17:47:33;;;;;;;14.27;2.67;;;;;;;;;;4954210;29;20535;-73
2023/10/05 17:49:59;;;;;;;13.75;2.95;;;;;;;;;;4954432;28;20396;-71
2023/10/05 17:52:26;;;;;;;11.20;2.53;;;;;;;;;;4954004;28;20843;-71
2023/10/05 17:54:53;;;;;;;13.25;3.15;;;;;;;;;;4954235;29;20039;-71
2023/10/05 17:57:18;;;;;;;21.48;3.15;;;;;;;;;;4950834;28;20118;-72
2023/10/05 17:59:47;;;;;;;12.38;2.53;;;;;;;;;;4934740;29;20158;-72
2023/10/05 18:02:14;;;;;;;15.50;2.63;;;;;;;;;;4949218;29;20031;-72
2023/10/05 18:04:41;;;;;;;22.33;2.70;;;;;;;;;;4948937;29;20041;-72
2023/10/05 18:07:06;;;;;;;16.55;3.03;;;;;;;;;;4957459;28;20031;-72
2023/10/05 18:09:34;;;;;;;21.00;2.95;;;;;;;;;;4967688;28;20023;-71
2023/10/05 18:12:00;;;;;;;14.65;3.22;;;;;;;;;;4961660;28;20063;-71
2023/10/05 18:14:26;;;;;;;15.43;2.88;;;;;;;;;;4965925;28;20039;-71
2023/10/05 18:16:54;;;;;;;16.45;3.65;;;;;;;;;;4956450;28;20047;-71
2023/10/05 18:19:21;;;;;;;14.10;2.83;;;;;;;;;;4953793;29;20035;-71
2023/10/05 18:21:50;;;;;;;12.48;2.60;;;;;;;;;;4953707;28;20038;-71
2023/10/05 18:24:17;;;;;;;15.00;2.33;;;;;;;;;;4953361;29;20070;-71
2023/10/05 18:26:43;;;;;;;9.55;2.08;;;;;;;;;;4953913;29;20039;-70
2023/10/05 18:29:12;;;;;;;9.57;2.25;;;;;;;;;;4943664;28;20031;-72
2023/10/05 18:31:38;;;;;;;14.57;2.67;;;;;;;;;;4956282;28;20042;-70
2023/10/05 18:34:04;;;;;;;9.15;2.58;;;;;;;;;;4953414;29;20024;-70
2023/10/05 18:36:29;;;;;;;8.60;2.38;;;;;;;;;;4953357;29;20070;-69
2023/10/05 18:38:55;;;;;;;9.98;2.72;;;;;;;;;;4966289;28;20062;-71
2023/10/05 18:41:21;;;;;;;9.02;3.25;;;;;;;;;;4972760;28;20722;-69
2023/10/05 18:43:50;;;;;;;9.32;2.13;;;;;;;;;;4972631;28;20402;-69
2023/10/05 18:46:16;;;;;;;12.82;3.00;;;;;;;;;;4970125;28;20101;-69
2023/10/05 18:48:42;;;;;;;8.40;2.50;;;;;;;;;;4953118;28;20039;-70
2023/10/05 18:51:08;;;;;;;12.95;2.80;;;;;;;;;;4953025;29;20058;-69
2023/10/05 18:53:37;;;;;;;8.50;2.75;;;;;;;;;;4957048;28;20058;-71
2023/10/05 18:56:04;;;;;;;10.30;2.47;;;;;;;;;;4960475;28;20062;-71
2023/10/05 18:58:29;;;;;;;14.27;3.30;;;;;;;;;;4962149;28;20701;-71
2023/10/05 19:00:59;;;;;;;6.85;2.40;;;;;;;;;;4960271;28;20022;-71
2023/10/05 19:03:25;;;;;;;8.63;2.20;;;;;;;;;;4957552;28;20457;-71
2023/10/05 19:05:50;;;;;;;10.13;2.38;;;;;;;;;;4963127;28;20073;-72
2023/10/05 19:08:16;;;;;;;6.93;2.67;;;;;;;;;;4971915;28;20051;-71
2023/10/05 19:10:42;;;;;;;12.30;2.53;;;;;;;;;;4972350;28;20542;-71
2023/10/05 19:13:08;;;;;;;4.40;2.50;;;;;;;;;;4972339;28;20410;-71
2023/10/05 19:15:34;;;;;;;9.20;3.13;;;;;;;;;;4972134;28;20118;-71
2023/10/05 19:18:00;;;;;;;5.40;3.00;;;;;;;;;;4972097;28;20113;-70
2023/10/05 19:20:26;;;;;;;13.15;2.70;;;;;;;;;;4972134;28;20023;-70
2023/10/05 19:22:52;;;;;;;4.80;2.55;;;;;;;;;;4972368;28;20054;-70
2023/10/05 19:25:18;;;;;;;9.00;2.72;;;;;;;;;;4972026;28;20034;-69
2023/10/05 19:27:43;;;;;;;11.27;2.65;;;;;;;;;;4971854;28;20081;-71
2023/10/05 19:30:13;;;;;;;7.28;2.47;;;;;;;;;;4974826;28;20035;-71
2023/10/05 19:32:42;;;;;;;8.38;2.58;;;;;;;;;;4976065;28;20042;-71
2023/10/05 19:35:12;;;;;;;7.88;2.35;;;;;;;;;;4975916;28;20395;-71
2023/10/05 19:37:38;;;;;;;6.43;2.50;;;;;;;;;;4976059;28;20019;-71
2023/10/05 19:40:05;;;;;;;11.20;2.50;;;;;;;;;;4975894;28;20041;-72
2023/10/05 19:42:30;;;;;;;13.25;2.60;;;;;;;;;;4976066;28;20074;-72
2023/10/05 19:44:56;;;;;;;5.30;2.40;;;;;;;;;;4975553;28;20039;-73
2023/10/05 19:47:21;;;;;;;11.30;2.78;;;;;;;;;;4958370;28;20035;-73
2023/10/05 19:49:49;;;;;;;12.30;2.80;;;;;;;;;;4975734;28;20026;-72
2023/10/05 19:52:15;;;;;;;13.90;3.22;;;;;;;;;;4975617;28;20026;-72
2023/10/05 19:54:40;;;;;;;9.95;2.75;;;;;;;;;;4975499;28;20034;-72
2023/10/05 19:57:06;;;;;;;9.70;2.70;;;;;;;;;;4974152;28;20498;-71
2023/10/05 19:59:32;;;;;;;8.88;2.40;;;;;;;;;;4975556;28;20038;-72
2023/10/05 20:01:57;;;;;;;9.32;2.58;;;;;;;;;;4975628;28;20041;-70
2023/10/05 20:04:24;;;;;;;8.98;2.30;;;;;;;;;;4975530;28;20507;-71
2023/10/05 20:06:50;;;;;;;5.95;2.30;;;;;;;;;;4975364;28;20491;-72
2023/10/05 20:09:16;;;;;;;10.75;2.95;;;;;;;;;;4975250;28;20042;-69
2023/10/05 20:11:42;;;;;;;9.63;2.28;;;;;;;;;;4975551;28;20022;-72
2023/10/05 20:14:11;;;;;;;8.90;2.65;;;;;;;;;;4975355;28;20078;-71
2023/10/05 20:16:40;;;;;;;7.47;2.88;;;;;;;;;;4975279;28;20085;-70
2023/10/05 20:19:07;;;;;;;7.10;3.00;;;;;;;;;;4974653;28;20054;-72
2023/10/05 20:21:33;;;;;;;8.13;2.65;;;;;;;;;;4969906;28;20027;-69
2023/10/05 20:23:59;;;;;;;7.68;2.42;;;;;;;;;;4975233;28;20105;-70
2023/10/05 20:26:27;;;;;;;11.73;2.63;;;;;;;;;;4975029;28;20546;-69
2023/10/05 20:28:53;;;;;;;8.65;2.50;;;;;;;;;;4975209;28;20114;-69
2023/10/05 20:31:19;;;;;;;8.48;2.30;;;;;;;;;;4974900;28;20106;-70
2023/10/05 20:33:45;;;;;;;8.80;2.47;;;;;;;;;;4975121;28;20031;-71
2023/10/05 20:36:11;;;;;;;23.00;3.13;;;;;;;;;;4968499;28;20477;-71
2023/10/05 20:38:37;;;;;;;8.40;2.40;;;;;;;;;;4955475;29;20112;-67
2023/10/05 20:41:04;;;;;;;7.93;3.45;;;;;;;;;;4957389;28;20067;-68
2023/10/05 20:43:30;;;;;;;14.13;3.00;;;;;;;;;;4955529;28;20027;-68